Latest Weather Observations for Stenhouse Bay

IDS60801

Issued at 12:31 pm CST Wednesday 28 September 2016 (issued every 30 minutes, with the page automatically refreshed every 10 minutes)

About weather observations | Map of weather stations | Latest weather observations for SA | Other Formats
Station Details ID: 022049 Name: STENHOUSE BAY Lat: -35.28 Lon: 136.94 Height: 42.0 m
Data from the previous 72 hours. | See also: Recent months at Stenhouse Bay
Date/Time
CST
Temp
°C
App
Temp
°C
Dew
Point
°C
Rel
Hum
%
Delta-T
°C
Wind Press
QNH
hPa
Press
MSL
hPa
Rain since
9am
mm
Dir  Spd
km/h
Gust
km/h
Spd
kts
Gust
kts
28/12:30pm 16.3 9.4 14.5 89 1.0 NNE 44 61 24 33 991.5 991.4 0.0
28/12:00pm 16.9 8.6 12.6 76 2.4 NNE 48 69 26 37 992.8 992.7 0.0
28/11:30am 18.2 9.5 10.1 59 4.4 NE 46 70 25 38 993.1 993.1 0.0
28/11:00am 16.7 7.5 9.6 63 3.7 NNE 48 72 26 39 994.9 994.9 0.0
28/10:58am 16.8 7.6 9.5 62 3.8 NNE 48 72 26 39 994.8 994.8 0.0
28/10:45am 16.7 11.3 9.4 62 3.8 NNE 28 52 15 28 994.9 994.9 0.0
28/10:30am 16.8 11.6 8.8 59 4.2 NE 26 43 14 23 995.5 995.5 0.0
28/10:00am 18.1 10.0 8.7 54 4.9 NNE 41 59 22 32 996.9 996.9 0.0
28/09:52am 18.2 10.6 9.0 55 4.8 NE 39 59 21 32 997.1 997.1 0.0
28/09:30am 18.6 11.5 9.7 56 4.8 NE 37 52 20 28 998.0 998.0 0.0
28/09:00am 17.2 11.2 10.1 63 3.8 NE 32 44 17 24 998.9 998.9 0.0
28/08:30am 16.0 9.8 10.1 68 3.1 NNE 33 48 18 26 1000.4 1000.4 0.0
28/08:00am 15.0 9.8 10.4 74 2.4 NNE 28 37 15 20 1001.3 1001.3 0.0
28/07:30am 13.4 9.5 10.9 85 1.3 NNE 22 30 12 16 1002.0 1002.0 0.0
28/07:00am 11.5 8.3 11.3 99 0.1 NNE 19 28 10 15 1002.7 1002.7 0.0
28/06:30am 9.8 6.2 9.8 100 0.0 NNE 19 24 10 13 1003.1 1003.1 0.0
28/06:00am 9.0 5.0 9.0 100 0.0 NNE 20 28 11 15 1003.7 1003.7 0.0
28/05:30am 8.7 5.2 8.7 100 0.0 N 17 24 9 13 1004.4 1004.4 0.0
28/05:00am 8.6 5.1 8.6 100 0.0 N 17 22 9 12 1004.9 1004.9 0.0
28/04:30am 8.4 4.8 8.4 100 0.0 NNE 17 22 9 12 1005.7 1005.7 0.0
28/04:00am 8.1 4.8 8.1 100 0.0 NNE 15 17 8 9 1006.1 1006.1 0.0
28/03:30am 8.2 4.6 8.2 100 0.0 NNE 17 20 9 11 1006.8 1006.7 0.0
28/03:00am 7.9 4.6 7.9 100 0.0 NNE 15 19 8 10 1007.3 1007.2 0.0
28/02:30am 8.0 4.7 8.0 100 0.0 NNE 15 19 8 10 1007.9 1007.8 0.0
28/02:00am 8.5 5.7 8.5 100 0.0 NNE 13 17 7 9 1008.6 1008.5 0.0
28/01:30am 7.5 4.5 7.5 100 0.0 NNE 13 17 7 9 1009.2 1009.1 0.0
28/01:00am 7.8 4.8 7.8 100 0.0 NNE 13 17 7 9 1009.7 1009.6 0.0
28/12:30am 8.0 4.7 8.0 100 0.0 N 15 17 8 9 1010.4 1010.3 0.0
28/12:00am 8.0 5.5 8.0 100 0.0 N 11 13 6 7 1010.8 1010.7 0.0
 
Date/Time
CST
Temp
°C
App
Temp
°C
Dew
Point
°C
Rel
Hum
%
Delta-T
°C
Wind Press
QNH
hPa
Press
MSL
hPa
Rain since
9am
mm
Dir  Spd
km/h
Gust
km/h
Spd
kts
Gust
kts
27/11:30pm 8.2 5.3 8.2 100 0.0 N 13 13 7 7 1011.2 1011.1 0.0
27/11:00pm 8.3 6.2 8.3 100 0.0 N 9 11 5 6 1011.5 1011.4 0.0
27/10:30pm 8.6 6.6 8.6 100 0.0 N 9 11 5 6 1011.7 1011.6 0.0
27/10:00pm 8.9 6.6 8.9 100 0.0 N 11 13 6 7 1012.0 1011.9 0.0
27/09:30pm 9.3 7.8 9.3 100 0.0 N 7 11 4 6 1012.4 1012.4 0.0
27/09:00pm 9.7 8.0 9.7 100 0.0 N 9 11 5 6 1012.5 1012.5 0.0
27/08:30pm 9.9 8.2 9.9 100 0.0 N 9 11 5 6 1012.8 1012.8 0.0
27/08:00pm 10.4 8.9 10.4 100 0.0 N 9 9 5 5 1013.0 1013.0 0.0
27/07:30pm 11.2 10.2 11.0 99 0.1 N 7 9 4 5 1013.0 1013.0 0.0
27/07:00pm 12.3 11.6 11.4 94 0.5 NNW 6 7 3 4 1012.9 1012.9 0.0
27/06:30pm 13.0 12.2 11.1 88 1.0 NW 6 7 3 4 1013.1 1013.1 0.0
27/06:00pm 13.6 12.1 10.6 82 1.6 NW 9 15 5 8 1013.2 1013.2 0.0
27/05:30pm 14.3 13.4 11.3 82 1.6 NW 7 15 4 8 1013.0 1013.0 0.0
27/05:00pm 15.0 13.3 11.2 78 2.0 NW 11 19 6 10 1013.0 1013.0 0.0
27/04:30pm 15.1 11.9 10.1 72 2.6 W 17 22 9 12 1013.0 1013.0 0.0
27/04:00pm 15.5 12.6 9.6 68 3.1 WNW 15 24 8 13 1013.0 1013.0 0.0
27/03:30pm 15.4 12.1 9.7 69 3.0 WNW 17 24 9 13 1013.2 1013.2 0.0
27/03:00pm 16.8 12.7 10.2 65 3.5 NW 22 35 12 19 1013.4 1013.4 0.0
27/02:30pm 16.3 13.6 10.4 68 3.1 NW 15 24 8 13 1013.4 1013.4 0.0
27/02:00pm 16.4 12.7 10.0 66 3.4 NW 20 32 11 17 1013.7 1013.7 0.0
27/01:30pm 15.6 11.4 9.9 69 3.0 NW 22 35 12 19 1014.2 1014.2 0.0
27/01:00pm 14.8 10.5 9.4 70 2.8 NW 22 33 12 18 1014.6 1014.6 0.0
27/12:30pm 15.4 11.5 9.3 67 3.1 NW 20 39 11 21 1014.8 1014.8 0.0
27/12:00pm 16.4 11.3 9.1 62 3.8 NW 26 35 14 19 1015.0 1015.0 0.0
27/11:30am 16.8 12.2 9.7 63 3.7 NW 24 37 13 20 1015.0 1015.0 0.0
27/11:00am 16.0 11.6 9.0 63 3.6 WNW 22 39 12 21 1015.3 1015.3 0.0
27/10:30am 15.0 10.5 7.1 59 3.9 WNW 20 33 11 18 1015.4 1015.4 0.0
27/10:00am 14.4 9.5 8.4 67 3.0 WNW 24 35 13 19 1015.7 1015.7 0.0
27/09:30am 14.9 10.7 9.7 71 2.7 WNW 22 32 12 17 1015.6 1015.6 0.0
27/09:00am 13.0 9.1 9.4 79 1.8 WNW 20 28 11 15 1015.7 1015.7 0.0
27/08:30am 13.5 9.8 9.6 77 2.0 WNW 19 32 10 17 1015.6 1015.6 0.0
27/08:00am 12.8 10.3 11.0 89 0.9 NW 15 28 8 15 1015.2 1015.2 0.0
27/07:30am 11.5 10.6 11.5 100 0.0 NW 7 11 4 6 1015.1 1015.1 0.0
27/07:00am 11.2 8.3 11.0 99 0.1 WNW 17 30 9 16 1015.0 1015.0 0.0
27/06:30am 10.0 7.2 8.4 90 0.8 WNW 13 17 7 9 1014.6 1014.6 0.0
27/06:00am 9.6 6.6 7.7 88 0.9 W 13 15 7 8 1014.2 1014.2 0.0
27/05:30am 10.2 6.9 8.0 86 1.1 WNW 15 20 8 11 1014.0 1014.0 0.0
27/05:00am 10.5 7.5 7.9 84 1.3 WNW 13 19 7 10 1013.9 1013.9 0.0
27/04:30am 10.1 7.1 7.9 86 1.1 WNW 13 19 7 10 1013.8 1013.8 0.0
27/04:00am 9.6 6.6 7.7 88 0.9 W 13 19 7 10 1013.6 1013.6 0.0
27/03:30am 9.6 6.5 7.2 85 1.1 W 13 20 7 11 1013.6 1013.6 0.0
27/03:00am 9.7 6.6 7.3 85 1.1 W 13 19 7 10 1013.7 1013.7 0.0
27/02:30am 9.9 6.2 6.4 79 1.6 W 15 19 8 10 1013.9 1013.9 0.0
27/02:00am 10.2 6.7 7.3 82 1.4 W 15 20 8 11 1014.2 1014.2 0.0
27/01:30am 10.4 7.0 7.5 82 1.4 W 15 19 8 10 1014.3 1014.3 0.0
27/01:00am 11.1 8.3 8.5 84 1.3 W 13 19 7 10 1014.4 1014.4 0.0
27/12:30am 10.9 7.4 7.0 77 1.9 W 15 22 8 12 1014.7 1014.7 0.0
27/12:00am 9.9 6.8 7.3 84 1.2 W 13 17 7 9 1014.9 1014.9 0.0
 
Date/Time
CST
Temp
°C
App
Temp
°C
Dew
Point
°C
Rel
Hum
%
Delta-T
°C
Wind Press
QNH
hPa
Press
MSL
hPa
Rain since
9am
mm
Dir  Spd
km/h
Gust
km/h
Spd
kts
Gust
kts
26/11:30pm 10.8 7.0 7.5 80 1.6 WSW 17 24 9 13 1015.0 1015.0 0.0
26/11:00pm 10.9 6.7 7.6 80 1.6 WSW 19 32 10 17 1015.2 1015.2 0.0
26/10:30pm 11.5 6.9 8.0 79 1.7 WSW 22 35 12 19 1015.1 1015.1 0.0
26/10:00pm 11.3 7.0 6.8 74 2.1 WSW 19 28 10 15 1015.3 1015.3 0.0
26/09:30pm 11.2 6.6 6.5 73 2.2 WSW 20 32 11 17 1014.9 1014.9 0.0
26/09:00pm 11.6 7.6 9.2 85 1.2 WSW 20 37 11 20 1014.8 1014.8 0.0
26/08:30pm 11.6 5.8 9.5 87 1.1 WSW 30 46 16 25 1014.8 1014.8 0.0
26/08:00pm 11.7 7.1 8.2 79 1.7 WSW 22 35 12 19 1014.4 1014.4 0.0
26/07:30pm 11.8 6.9 8.6 81 1.6 WSW 24 35 13 19 1014.1 1014.1 0.0
26/07:00pm 11.8 7.7 8.6 81 1.6 WSW 20 32 11 17 1013.7 1013.7 0.0
26/06:30pm 11.8 6.5 8.3 79 1.7 WSW 26 39 14 21 1013.5 1013.5 0.0
26/06:00pm 12.0 6.6 8.1 77 1.9 WSW 26 35 14 19 1013.3 1013.3 0.0
26/05:30pm 12.2 6.3 8.9 80 1.7 WSW 30 43 16 23 1013.0 1013.0 0.0
26/05:00pm 13.4 7.1 7.6 68 2.8 WSW 30 46 16 25 1012.5 1012.5 0.0
26/04:30pm 12.6 7.0 8.7 77 2.0 WSW 28 43 15 23 1012.2 1012.1 0.0
26/04:21pm 13.5 7.6 9.0 74 2.3 WSW 30 48 16 26 1012.1 1012.0 0.0
26/04:00pm 13.6 6.9 8.2 70 2.7 WSW 33 46 18 25 1012.0 1011.9 0.0
26/03:30pm 13.7 7.7 8.5 71 2.6 WSW 30 43 16 23 1011.8 1011.7 0.0
26/03:00pm 15.0 8.2 7.8 62 3.6 WSW 33 44 18 24 1011.7 1011.6 0.0
26/02:30pm 14.0 7.1 7.3 64 3.3 W 33 50 18 27 1011.7 1011.6 0.0
26/02:00pm 15.7 9.8 8.9 64 3.5 W 30 48 16 26 1011.7 1011.6 0.0
26/01:30pm 15.1 7.1 7.4 60 3.8 W 39 59 21 32 1011.6 1011.5 0.0
26/01:00pm 15.4 8.5 7.4 59 4.0 W 33 54 18 29 1011.6 1011.5 0.0
26/12:55pm 15.6 8.9 7.4 58 4.1 W 32 52 17 28 1011.7 1011.6 0.0
26/12:30pm 15.4 8.0 6.9 57 4.2 W 35 48 19 26 1011.7 1011.6 0.0
26/12:00pm 15.4 8.7 7.2 58 4.1 W 32 50 17 27 1011.8 1011.7 0.0
26/11:41am 14.8 7.7 6.6 58 4.0 W 33 54 18 29 1011.7 1011.6 0.0
26/11:30am 15.0 8.5 6.6 57 4.1 W 30 44 16 24 1011.8 1011.7 0.0
26/11:00am 15.4 9.3 8.2 62 3.6 W 30 44 16 24 1011.8 1011.7 0.0
26/10:30am 14.7 9.8 9.9 73 2.5 WSW 26 41 14 22 1012.0 1011.9 0.0
26/10:00am 14.1 7.7 8.7 70 2.7 W 32 44 17 24 1012.0 1011.9 0.0
26/09:30am 13.0 9.4 10.0 82 1.5 W 19 28 10 15 1012.1 1012.0 0.0
26/09:00am 11.7 8.4 10.8 94 0.5 W 19 32 10 17 1011.9 1011.8 0.2
26/08:30am 10.8 8.2 10.8 100 0.0 WNW 15 22 8 12 1011.8 1011.7 0.2
26/08:00am 11.6 7.5 11.6 100 0.0 W 24 41 13 22 1011.9 1011.8 0.2
26/07:30am 11.7 6.5 11.7 100 0.0 WSW 30 41 16 22 1011.5 1011.4 0.2
26/07:00am 11.8 8.7 11.6 99 0.1 NW 19 32 10 17 1011.4 1011.3 0.2
26/06:30am 11.0 8.5 11.0 100 0.0 NW 15 19 8 10 1011.0 1010.9 0.2
26/06:00am 10.6 8.0 10.6 100 0.0 NW 15 19 8 10 1010.9 1010.8 0.2
26/05:30am 11.1 7.7 11.1 100 0.0 NNW 20 28 11 15 1010.7 1010.6 0.2
26/05:00am 9.8 6.0 9.8 100 0.0 NNW 20 26 11 14 1010.8 1010.7 0.0
26/04:30am 8.3 5.1 8.3 100 0.0 NNW 15 19 8 10 1010.5 1010.4 0.0
26/04:00am 7.5 4.1 7.5 100 0.0 N 15 17 8 9 1010.3 1010.2 0.0
26/03:30am 8.0 3.9 8.0 100 0.0 N 19 22 10 12 1010.7 1010.6 0.0
26/03:00am 7.4 3.6 7.4 100 0.0 N 17 20 9 11 1010.6 1010.5 0.0
26/02:30am 7.0 3.5 7.0 100 0.0 N 15 19 8 10 1010.9 1010.8 0.0
26/02:00am 7.3 3.8 7.3 100 0.0 N 15 17 8 9 1010.8 1010.7 0.0
26/01:30am 7.2 4.1 7.2 100 0.0 N 13 13 7 7 1011.7 1011.6 0.0
26/01:00am 7.4 5.1 7.4 100 0.0 N 9 13 5 7 1012.7 1012.7 0.0
26/12:30am 7.6 5.7 7.6 100 0.0 N 7 9 4 5 1013.3 1013.3 0.0
26/12:00am 7.2 5.2 7.2 100 0.0 NNW 7 9 4 5 1013.7 1013.7 0.0
 
Date/Time
CST
Temp
°C
App
Temp
°C
Dew
Point
°C
Rel
Hum
%
Delta-T
°C
Wind Press
QNH
hPa
Press
MSL
hPa
Rain since
9am
mm
Dir  Spd
km/h
Gust
km/h
Spd
kts
Gust
kts
25/11:30pm 6.8 4.4 6.8 100 0.0 N 9 9 5 5 1014.0 1014.0 0.0
25/11:00pm 6.7 4.6 6.7 100 0.0 N 7 9 4 5 1014.4 1014.4 0.0
25/10:30pm 7.3 5.3 7.3 100 0.0 N 7 9 4 5 1014.6 1014.6 0.0
25/10:00pm 7.8 6.0 7.8 100 0.0 N 7 9 4 5 1014.8 1014.8 0.0
25/09:30pm 8.5 6.8 8.5 100 0.0 N 7 9 4 5 1014.9 1014.9 0.0
25/09:00pm 8.8 7.2 8.8 100 0.0 N 7 9 4 5 1014.8 1014.8 0.0
25/08:30pm 9.5 8.1 9.5 100 0.0 NNW 7 9 4 5 1014.5 1014.5 0.0
25/08:00pm 10.8 9.4 10.8 100 0.0 WNW 9 13 5 7 1014.5 1014.5 0.0
25/07:30pm 10.9 9.4 10.7 99 0.1 WNW 9 13 5 7 1014.5 1014.5 0.0
25/07:00pm 10.4 8.8 10.1 98 0.2 W 9 13 5 7 1014.2 1014.2 0.0
25/06:30pm 10.7 9.4 9.9 95 0.4 NW 7 9 4 5 1013.9 1013.9 0.0
25/06:00pm 11.5 9.7 9.4 87 1.1 NNW 9 11 5 6 1013.6 1013.6 0.0
25/05:30pm 12.0 9.3 8.8 81 1.6 NW 13 19 7 10 1013.7 1013.7 0.0
25/05:00pm 12.9 10.6 10.3 84 1.3 NNW 13 22 7 12 1013.5 1013.5 0.0
25/04:30pm 12.1 8.5 9.8 86 1.2 WNW 19 32 10 17 1013.6 1013.6 0.0
25/04:00pm 13.8 10.5 8.2 69 2.8 NW 15 26 8 14 1013.3 1013.3 0.0
25/03:30pm 14.4 11.4 7.9 65 3.2 NW 13 22 7 12 1013.3 1013.3 0.0
25/03:00pm 16.1 12.6 8.8 62 3.7 NW 17 30 9 16 1013.3 1013.3 0.0
25/02:30pm 16.1 11.6 10.0 67 3.2 NW 24 33 13 18 1013.4 1013.4 0.0
25/02:00pm 14.4 10.3 8.8 69 2.8 NW 20 33 11 18 1013.7 1013.7 0.0
25/01:30pm 13.9 10.2 10.3 79 1.9 NW 20 33 11 18 1014.1 1014.1 0.0
25/01:00pm 14.3 10.7 9.9 75 2.3 NW 19 33 10 18 1014.2 1014.2 0.0

Other Formats:

Comma delimited format used in spreadsheet applications
http://www.bom.gov.au/fwo/IDS60801/IDS60801.95806.axf

JavaScript Object Notation format (JSON) in row-major order
http://www.bom.gov.au/fwo/IDS60801/IDS60801.95806.json